Time;durP1;ratioP1;P1;durP2;ratioP2;P2;SDS_P1;SDS_P2;PMS_P1;PMS_P2;Temp;Humidity;BMP_temperature;BMP_pressure;BME280_temperature;BME280_humidity;BME280_pressure;Samples;Min_cycle;Max_cycle;Signal;HPM_P1;HPM_P2
2021/06/04 00:00:43;;;;;;;24.15;11.02;;;20.90;74.10;;;;;;4916928;29;20050;-69
2021/06/04 00:03:48;;;;;;;15.18;10.10;;;20.90;74.30;;;;;;4917100;29;20047;-69
2021/06/04 00:06:52;;;;;;;25.17;10.07;;;20.80;74.60;;;;;;4916847;29;20055;-69
2021/06/04 00:09:56;;;;;;;18.52;9.10;;;20.90;73.90;;;;;;4917660;29;20063;-69
2021/06/04 00:13:30;;;;;;;26.27;9.10;;;20.90;72.80;;;;;;4916865;29;20056;-69
2021/06/04 00:16:42;;;;;;;19.85;9.43;;;20.90;72.80;;;;;;4916864;29;20047;-69
2021/06/04 00:19:46;;;;;;;23.63;9.18;;;21.00;71.90;;;;;;4916965;29;20047;-69
2021/06/04 00:22:50;;;;;;;18.70;9.48;;;21.00;70.80;;;;;;4916790;29;20221;-69
2021/06/04 00:25:54;;;;;;;23.90;8.13;;;21.10;70.30;;;;;;4916603;29;20059;-69
2021/06/04 00:28:58;;;;;;;12.07;7.60;;;21.00;70.10;;;;;;4916343;29;20059;-69
2021/06/04 00:32:05;;;;;;;14.00;7.90;;;21.00;70.50;;;;;;4894258;29;20401;-69
2021/06/04 00:35:10;;;;;;;12.68;8.00;;;21.00;71.20;;;;;;4916440;29;20413;-69
2021/06/04 00:38:16;;;;;;;17.52;8.32;;;21.00;71.90;;;;;;4916491;29;20503;-69
2021/06/04 00:41:26;;;;;;;20.05;8.82;;;21.00;72.30;;;;;;4904998;29;20058;-69
2021/06/04 00:44:31;;;;;;;20.70;9.35;;;21.00;72.70;;;;;;4916775;29;20380;-69
2021/06/04 00:47:36;;;;;;;19.92;9.60;;;20.90;72.80;;;;;;4916344;29;20066;-69
2021/06/04 00:50:46;;;;;;;13.30;9.43;;;20.80;72.70;;;;;;4916315;29;20051;-69
2021/06/04 00:53:55;;;;;;;20.00;9.25;;;20.70;73.10;;;;;;4904435;29;20436;-69
2021/06/04 00:57:00;;;;;;;25.27;9.13;;;20.60;73.40;;;;;;4904244;29;20047;-69
2021/06/04 01:00:14;;;;;;;;;;;20.50;73.60;;;;;;4895033;29;20543;-69
2021/06/04 01:03:24;;;;;;;14.95;9.18;;;20.40;74.20;;;;;;4904375;29;19918;-69
2021/06/04 01:06:52;;;;;;;14.70;10.07;;;20.40;74.80;;;;;;4915817;29;20546;-69
2021/06/04 01:10:12;;;;;;;23.08;9.65;;;20.30;75.10;;;;;;4915134;29;20244;-69
2021/06/04 01:13:25;;;;;;;17.23;10.50;;;20.20;75.30;;;;;;4904137;29;20051;-69
2021/06/04 01:16:37;;;;;;;16.85;9.43;;;20.20;75.60;;;;;;4904230;29;20054;-69
2021/06/04 01:20:23;;;;;;;23.25;11.38;;;20.20;75.70;;;;;;4904188;29;20385;-69
2021/06/04 01:23:50;;;;;;;16.88;9.68;;;20.10;75.90;;;;;;4851807;29;20061;-69
2021/06/04 01:27:02;;;;;;;14.60;10.70;;;20.10;76.10;;;;;;4904336;29;20039;-69
2021/06/04 01:30:24;;;;;;;13.15;9.57;;;20.10;76.00;;;;;;4914561;29;20059;-69
2021/06/04 01:33:38;;;;;;;17.30;10.18;;;20.00;76.10;;;;;;4903794;29;20043;-69
2021/06/04 01:36:51;;;;;;;19.38;10.98;;;19.90;76.60;;;;;;4914486;29;20055;-69
2021/06/04 01:40:04;;;;;;;20.38;11.27;;;19.50;77.90;;;;;;4903546;29;20055;-69
2021/06/04 01:43:48;;;;;;;16.35;10.77;;;19.20;79.00;;;;;;4915245;29;20051;-69
2021/06/04 01:47:01;;;;;;;17.92;10.77;;;19.20;80.00;;;;;;4918357;29;20055;-68
2021/06/04 01:50:16;;;;;;;21.23;10.65;;;19.40;79.10;;;;;;4914041;29;20429;-68
2021/06/04 01:53:07;;;;;;;19.00;10.57;;;19.60;78.20;;;;;;4904441;29;20056;-68
2021/06/04 01:56:17;;;;;;;13.98;10.05;;;19.70;77.60;;;;;;4903704;29;20043;-69
2021/06/04 01:59:29;;;;;;;15.90;9.52;;;19.80;77.20;;;;;;4915320;29;20071;-68
2021/06/04 02:02:46;;;;;;;17.25;9.50;;;19.60;77.70;;;;;;4903328;29;20051;-68
2021/06/04 02:05:43;;;;;;;14.98;9.00;;;19.50;78.00;;;;;;4904087;29;20163;-69
2021/06/04 02:08:54;;;;;;;23.85;9.45;;;19.60;77.60;;;;;;4903247;29;20058;-69
2021/06/04 02:12:12;;;;;;;;;;;19.60;77.30;;;;;;4903404;29;20055;-69
2021/06/04 02:15:30;;;;;;;16.83;9.75;;;19.90;76.70;;;;;;4903268;29;20267;-69
2021/06/04 02:19:02;;;;;;;16.98;9.60;;;20.00;76.30;;;;;;4903014;29;20063;-70
2021/06/04 02:22:24;;;;;;;14.38;9.32;;;20.10;75.30;;;;;;4903480;29;20511;-69
2021/06/04 02:25:46;;;;;;;14.25;9.60;;;20.10;75.30;;;;;;4903010;29;20048;-70
2021/06/04 02:29:13;;;;;;;21.20;9.32;;;19.90;75.40;;;;;;4914596;29;20055;-69
2021/06/04 02:32:18;;;;;;;15.25;9.75;;;19.80;75.70;;;;;;4914798;29;20129;-70
2021/06/04 02:35:26;;;;;;;25.77;13.32;;;19.70;76.10;;;;;;4902685;29;20059;-69
2021/06/04 02:38:39;;;;;;;16.70;8.55;;;19.60;75.80;;;;;;4914785;29;20051;-69
2021/06/04 02:41:47;;;;;;;14.55;8.20;;;19.60;75.20;;;;;;4914773;29;20043;-69
2021/06/04 02:45:00;;;;;;;15.18;8.98;;;19.50;75.40;;;;;;4914534;29;20047;-70
2021/06/04 02:48:18;;;;;;;10.35;7.47;;;19.50;75.70;;;;;;4914223;29;20059;-70
2021/06/04 02:51:37;;;;;;;14.35;8.35;;;19.50;75.60;;;;;;4903133;29;20051;-70
2021/06/04 02:54:44;;;;;;;13.43;8.57;;;19.50;75.80;;;;;;4903024;29;20047;-69
2021/06/04 02:57:49;;;;;;;10.43;7.75;;;19.60;75.70;;;;;;4903024;29;20055;-70
2021/06/04 03:00:56;;;;;;;11.48;7.53;;;19.70;75.40;;;;;;4902947;29;20051;-70
2021/06/04 03:03:46;;;;;;;13.70;8.32;;;19.70;75.40;;;;;;4904344;29;20043;-70
2021/06/04 03:06:39;;;;;;;13.40;8.27;;;19.70;75.30;;;;;;4914746;29;20047;-70
2021/06/04 03:09:45;;;;;;;14.15;8.32;;;19.60;75.50;;;;;;4903015;29;20063;-70
2021/06/04 03:12:52;;;;;;;19.15;8.68;;;19.60;75.70;;;;;;4914628;29;20396;-70
2021/06/04 03:16:04;;;;;;;23.35;8.65;;;19.60;75.90;;;;;;4902834;29;20397;-69
2021/06/04 03:19:16;;;;;;;13.75;9.32;;;19.60;76.20;;;;;;4902778;29;20055;-70
2021/06/04 03:22:29;;;;;;;11.70;8.57;;;19.40;76.30;;;;;;4904693;29;20051;-70
2021/06/04 03:25:42;;;;;;;18.95;8.55;;;19.30;76.60;;;;;;4906143;29;20059;-69
2021/06/04 03:28:48;;;;;;;14.95;9.45;;;19.40;76.50;;;;;;4917464;29;20440;-70
2021/06/04 03:31:58;;;;;;;17.55;9.00;;;19.40;76.50;;;;;;4905596;29;20071;-68
2021/06/04 03:35:02;;;;;;;18.73;8.90;;;19.40;76.70;;;;;;4917241;29;20055;-69
2021/06/04 03:38:07;;;;;;;17.58;9.05;;;19.30;76.50;;;;;;4917634;29;20311;-69
2021/06/04 03:41:15;;;;;;;17.00;8.73;;;19.00;77.90;;;;;;4905588;29;20056;-69
2021/06/04 03:44:28;;;;;;;16.65;8.55;;;18.90;78.10;;;;;;4905965;29;20047;-69
2021/06/04 03:47:32;;;;;;;15.90;8.55;;;18.90;78.30;;;;;;4917244;29;20051;-69
2021/06/04 03:50:37;;;;;;;12.00;8.68;;;19.10;77.60;;;;;;4905584;29;20152;-70
2021/06/04 03:53:41;;;;;;;15.85;7.68;;;19.30;77.00;;;;;;4916955;29;20051;-69
2021/06/04 03:56:48;;;;;;;15.48;8.20;;;19.40;76.30;;;;;;4916920;29;20071;-69
2021/06/04 03:59:53;;;;;;;15.32;8.07;;;19.40;76.00;;;;;;4905393;29;20042;-69
2021/06/04 04:02:58;;;;;;;14.80;8.38;;;19.50;75.30;;;;;;4917083;29;20055;-68
2021/06/04 04:06:03;;;;;;;26.02;9.52;;;19.40;75.90;;;;;;4916810;29;20070;-68
2021/06/04 04:09:09;;;;;;;14.25;8.18;;;19.30;76.20;;;;;;4916978;29;20094;-69
2021/06/04 04:12:13;;;;;;;13.10;8.82;;;19.40;76.10;;;;;;4916789;29;20499;-68
2021/06/04 04:15:21;;;;;;;14.25;8.73;;;19.50;75.70;;;;;;4916627;29;20063;-68
2021/06/04 04:18:26;;;;;;;15.85;9.77;;;19.50;75.80;;;;;;4916930;29;20043;-68
2021/06/04 04:21:30;;;;;;;18.02;9.48;;;19.50;75.90;;;;;;4916816;29;20062;-68
2021/06/04 04:24:37;;;;;;;24.45;11.27;;;19.50;76.30;;;;;;4916773;29;20146;-68
2021/06/04 04:27:41;;;;;;;31.63;12.70;;;19.60;76.50;;;;;;4916494;29;20059;-69
2021/06/04 04:30:46;;;;;;;22.33;11.30;;;19.60;76.40;;;;;;4916397;29;20460;-68
2021/06/04 04:33:51;;;;;;;20.23;10.90;;;19.60;76.50;;;;;;4915232;29;20039;-68
2021/06/04 04:36:59;;;;;;;18.83;10.65;;;19.70;76.40;;;;;;4916768;29;20405;-69
2021/06/04 04:40:10;;;;;;;26.95;11.52;;;20.00;76.10;;;;;;4916566;29;20043;-69
2021/06/04 04:43:14;;;;;;;19.90;11.43;;;20.30;74.90;;;;;;4916500;29;20055;-69
2021/06/04 04:46:21;;;;;;;15.43;11.27;;;20.80;73.40;;;;;;4916370;29;20066;-68
2021/06/04 04:49:26;;;;;;;25.40;11.25;;;21.30;71.50;;;;;;4915996;29;20063;-68
2021/06/04 04:52:30;;;;;;;20.00;12.70;;;22.20;69.40;;;;;;4916282;29;20047;-69
2021/06/04 04:55:38;;;;;;;20.85;11.90;;;22.50;67.90;;;;;;4916083;29;20516;-69
2021/06/04 04:58:43;;;;;;;30.13;12.20;;;22.60;67.50;;;;;;4916181;29;20507;-68
2021/06/04 05:01:47;;;;;;;26.92;12.82;;;22.60;68.30;;;;;;4916005;29;20059;-68
2021/06/04 05:04:53;;;;;;;22.25;13.75;;;22.80;68.00;;;;;;4916761;29;20051;-69
2021/06/04 05:07:57;;;;;;;30.90;12.45;;;22.70;67.30;;;;;;4916052;29;20051;-68
2021/06/04 05:11:03;;;;;;;36.45;12.30;;;22.60;67.90;;;;;;4916028;29;20408;-65
2021/06/04 05:14:07;;;;;;;22.98;11.10;;;22.60;69.20;;;;;;4915837;29;20052;-65
2021/06/04 05:17:12;;;;;;;33.55;12.05;;;22.80;68.80;;;;;;4915735;29;20500;-65
2021/06/04 05:20:18;;;;;;;34.08;12.02;;;23.10;68.40;;;;;;4915647;29;20051;-65
2021/06/04 05:23:23;;;;;;;25.90;11.77;;;23.60;66.90;;;;;;4915360;29;20154;-66
2021/06/04 05:26:27;;;;;;;29.73;11.32;;;23.70;65.80;;;;;;4915748;29;20051;-65
2021/06/04 05:29:32;;;;;;;29.17;11.90;;;23.70;66.70;;;;;;4915228;29;20079;-65
2021/06/04 05:32:36;;;;;;;30.60;11.82;;;24.10;64.90;;;;;;4915352;29;20035;-65
2021/06/04 05:35:41;;;;;;;23.35;10.20;;;24.10;64.30;;;;;;4915222;29;20055;-66
2021/06/04 05:38:47;;;;;;;21.42;9.70;;;24.20;64.00;;;;;;4915238;29;20084;-66
2021/06/04 05:41:56;;;;;;;24.67;9.10;;;24.50;62.30;;;;;;4903798;29;20055;-66
2021/06/04 05:45:00;;;;;;;22.05;8.80;;;24.70;61.70;;;;;;4915417;29;20392;-65
2021/06/04 05:48:08;;;;;;;21.10;7.95;;;24.80;61.50;;;;;;4915203;29;20381;-65
2021/06/04 05:51:20;;;;;;;18.13;8.48;;;25.00;60.30;;;;;;4915368;29;20539;-66
2021/06/04 05:54:25;;;;;;;19.25;7.32;;;25.20;59.80;;;;;;4915331;29;20054;-65
2021/06/04 05:57:29;;;;;;;17.10;7.03;;;25.30;59.20;;;;;;4915036;29;20523;-66
2021/06/04 06:00:40;;;;;;;263.25;27.50;;;25.40;58.60;;;;;;4915111;29;20059;-66
2021/06/04 06:03:45;;;;;;;832.60;97.85;;;25.60;58.30;;;;;;4914977;29;20405;-68
2021/06/04 06:06:51;;;;;;;72.00;12.93;;;25.70;58.70;;;;;;4914893;29;20054;-67
2021/06/04 06:09:55;;;;;;;35.60;10.98;;;25.80;58.00;;;;;;4914363;29;20062;-66
2021/06/04 06:13:00;;;;;;;115.28;19.25;;;26.00;57.60;;;;;;4914658;29;20055;-63
2021/06/04 06:16:05;;;;;;;27.83;15.63;;;26.10;57.60;;;;;;4914754;29;20051;-62
2021/06/04 06:19:12;;;;;;;30.92;15.15;;;26.20;58.80;;;;;;4914936;29;20142;-62
2021/06/04 06:22:16;;;;;;;41.60;18.40;;;26.30;57.10;;;;;;4914888;29;20054;-62
2021/06/04 06:25:30;;;;;;;27.38;17.10;;;26.60;57.30;;;;;;4914912;29;20054;-62
2021/06/04 06:28:37;;;;;;;24.90;14.43;;;26.80;56.30;;;;;;4913650;29;20149;-62
2021/06/04 06:31:43;;;;;;;27.38;13.23;;;27.00;55.60;;;;;;4914193;29;20063;-65
2021/06/04 06:34:48;;;;;;;38.53;12.00;;;27.10;55.70;;;;;;4914164;29;20063;-64
2021/06/04 06:37:52;;;;;;;21.60;10.30;;;27.20;55.80;;;;;;4914243;29;20449;-64
2021/06/04 06:40:59;;;;;;;20.40;9.65;;;27.40;55.10;;;;;;4913749;29;20412;-67
2021/06/04 06:44:04;;;;;;;19.60;9.82;;;27.60;54.80;;;;;;4914374;29;20067;-67
2021/06/04 06:47:08;;;;;;;19.40;9.95;;;28.10;53.90;;;;;;4914282;29;20051;-66
2021/06/04 06:50:13;;;;;;;22.35;9.65;;;28.40;53.00;;;;;;4902825;29;20055;-66
2021/06/04 06:53:19;;;;;;;18.55;9.35;;;28.70;51.90;;;;;;4914837;29;20063;-67
2021/06/04 06:56:23;;;;;;;22.20;9.43;;;28.80;51.80;;;;;;4915239;29;20063;-66
2021/06/04 06:59:29;;;;;;;26.38;9.50;;;28.90;51.70;;;;;;4918005;29;20405;-65
2021/06/04 07:02:33;;;;;;;16.60;7.78;;;29.10;52.80;;;;;;4917878;29;20051;-64
2021/06/04 07:05:38;;;;;;;17.65;7.03;;;29.30;51.70;;;;;;4917875;29;20050;-66
2021/06/04 07:08:43;;;;;;;22.02;7.63;;;29.50;50.60;;;;;;4917842;29;20055;-66
2021/06/04 07:11:53;;;;;;;15.20;6.85;;;29.70;50.10;;;;;;4917851;29;20055;-65
2021/06/04 07:14:58;;;;;;;14.38;6.43;;;29.90;49.50;;;;;;4918271;29;20385;-65
2021/06/04 07:18:03;;;;;;;13.27;7.13;;;29.90;48.70;;;;;;4906209;29;20071;-65
2021/06/04 07:21:09;;;;;;;26.70;6.72;;;29.90;49.10;;;;;;4917712;29;20425;-65
2021/06/04 07:24:19;;;;;;;28.23;8.00;;;30.00;49.60;;;;;;4917545;29;20043;-65
2021/06/04 07:27:23;;;;;;;26.83;8.45;;;30.30;49.90;;;;;;4917305;29;20478;-63
2021/06/04 07:30:33;;;;;;;59.00;10.52;;;30.50;49.20;;;;;;4917403;29;20052;-63
2021/06/04 07:33:48;;;;;;;22.20;7.57;;;30.50;49.10;;;;;;4917506;29;20051;-64
2021/06/04 07:36:55;;;;;;;23.30;7.20;;;30.60;48.90;;;;;;4917184;29;20059;-64
2021/06/04 07:40:00;;;;;;;21.50;7.22;;;30.80;49.10;;;;;;4916463;29;20055;-64
2021/06/04 07:43:10;;;;;;;25.60;7.32;;;30.90;49.50;;;;;;4917350;29;20047;-65
2021/06/04 07:46:18;;;;;;;30.25;6.85;;;31.00;48.80;;;;;;4917558;29;20059;-63
2021/06/04 07:49:24;;;;;;;22.52;6.95;;;31.20;49.10;;;;;;4916822;29;20051;-65
2021/06/04 07:52:29;;;;;;;20.63;7.10;;;31.30;49.50;;;;;;4917003;29;20150;-63
2021/06/04 07:55:33;;;;;;;12.57;5.38;;;31.20;48.00;;;;;;4916197;29;20047;-64
2021/06/04 07:58:37;;;;;;;21.52;6.00;;;31.20;48.10;;;;;;4917153;29;20051;-63
2021/06/04 08:01:42;;;;;;;14.95;5.60;;;31.20;47.70;;;;;;4916832;29;20051;-64
2021/06/04 08:04:46;;;;;;;18.35;5.95;;;31.20;47.50;;;;;;4916952;29;20053;-63
2021/06/04 08:07:51;;;;;;;8.25;5.13;;;31.20;47.50;;;;;;4915214;29;20428;-64
2021/06/04 08:10:56;;;;;;;19.88;5.53;;;31.00;48.40;;;;;;4916828;29;20055;-64
2021/06/04 08:14:06;;;;;;;12.88;5.20;;;30.80;48.00;;;;;;4903577;29;20043;-64
2021/06/04 08:17:10;;;;;;;12.35;4.88;;;30.70;47.60;;;;;;4915616;29;20401;-64
2021/06/04 08:20:22;;;;;;;10.93;4.95;;;30.60;47.00;;;;;;4916412;29;20058;-64
2021/06/04 08:33:49;;;;;;;10.93;4.40;;;30.60;46.20;;;;;;5087916;27;20274;-66
2021/06/04 08:36:54;;;;;;;9.05;4.80;;;31.10;46.10;;;;;;5087973;28;20032;-67
2021/06/04 08:39:58;;;;;;;15.23;5.22;;;31.10;45.90;;;;;;5088172;28;20048;-66
2021/06/04 08:43:24;;;;;;;10.55;4.57;;;31.20;46.30;;;;;;5087567;28;20506;-66
2021/06/04 08:46:36;;;;;;;21.58;5.30;;;31.30;45.90;;;;;;5088013;28;20052;-67
2021/06/04 08:50:31;;;;;;;21.15;4.50;;;31.40;45.50;;;;;;5087371;28;20047;-67
2021/06/04 08:53:44;;;;;;;10.00;4.20;;;31.50;45.30;;;;;;5064857;28;20044;-66
2021/06/04 08:57:12;;;;;;;28.27;5.40;;;31.30;44.00;;;;;;5054609;28;20534;-65
2021/06/04 09:00:27;;;;;;;15.52;5.03;;;31.40;45.30;;;;;;5087796;28;20051;-64
2021/06/04 09:03:47;;;;;;;16.58;4.35;;;31.50;45.20;;;;;;5086444;28;20407;-66
2021/06/04 09:07:05;;;;;;;18.27;4.63;;;31.50;44.20;;;;;;5086604;28;20043;-65
2021/06/04 09:10:42;;;;;;;8.10;4.28;;;31.60;44.60;;;;;;5087451;28;20055;-72
2021/06/04 09:13:47;;;;;;;9.18;4.68;;;31.30;44.70;;;;;;5087301;28;20036;-71
2021/06/04 09:17:03;;;;;;;23.42;5.35;;;31.20;45.10;;;;;;5087446;28;20028;-68
2021/06/04 09:20:07;;;;;;;13.98;4.18;;;31.20;45.20;;;;;;5087510;28;20047;-69
2021/06/04 09:23:15;;;;;;;9.90;4.57;;;31.10;45.60;;;;;;5086281;28;20051;-68
2021/06/04 09:26:22;;;;;;;12.43;4.10;;;31.20;45.80;;;;;;5087239;28;20040;-70
2021/06/04 09:29:29;;;;;;;13.05;4.28;;;31.10;45.20;;;;;;5086026;28;20047;-70
2021/06/04 09:32:33;;;;;;;11.77;3.50;;;31.00;45.00;;;;;;5085908;28;20055;-69
2021/06/04 09:35:54;;;;;;;6.95;3.80;;;31.10;45.00;;;;;;5073527;28;20044;-72
2021/06/04 09:39:04;;;;;;;8.15;3.67;;;31.00;44.50;;;;;;5073833;28;20053;-64
2021/06/04 09:42:20;;;;;;;12.80;3.75;;;31.00;43.90;;;;;;5073443;28;20057;-70
2021/06/04 09:45:40;;;;;;;10.85;4.15;;;31.00;43.50;;;;;;5073418;28;20043;-68
2021/06/04 09:48:55;;;;;;;9.05;4.03;;;30.90;43.40;;;;;;5072862;28;20506;-75
2021/06/04 09:52:27;;;;;;;9.88;3.67;;;30.80;44.70;;;;;;5073055;28;20032;-70
2021/06/04 09:55:34;;;;;;;7.03;4.05;;;30.90;45.70;;;;;;5073206;28;20044;-77
2021/06/04 09:58:49;;;;;;;13.30;4.55;;;30.90;44.60;;;;;;5073068;28;20403;-68
2021/06/04 10:01:54;;;;;;;9.10;3.92;;;31.00;45.40;;;;;;5073158;28;20048;-73
2021/06/04 10:05:29;;;;;;;13.18;4.72;;;31.00;45.50;;;;;;5073120;28;20045;-72
2021/06/04 10:08:40;;;;;;;12.60;4.28;;;31.00;45.00;;;;;;5060382;28;20040;-73
2021/06/04 10:11:44;;;;;;;11.52;3.92;;;31.10;44.50;;;;;;5072868;28;20071;-75
2021/06/04 10:14:55;;;;;;;7.35;4.47;;;31.10;45.40;;;;;;5072809;28;20043;-74
2021/06/04 10:21:12;;;;;;;10.45;4.03;;;31.10;45.50;;;;;;5072485;28;20036;-72
2021/06/04 10:24:32;;;;;;;12.77;4.03;;;31.10;46.30;;;;;;5072690;28;20060;-73
2021/06/04 10:27:41;;;;;;;10.60;3.60;;;31.20;46.20;;;;;;5073176;28;20044;-72
2021/06/04 10:30:44;;;;;;;16.98;4.88;;;31.20;47.00;;;;;;5072519;28;20043;-71
2021/06/04 10:34:18;;;;;;;8.75;3.92;;;31.20;47.10;;;;;;5032613;28;20389;-71
2021/06/04 10:38:06;;;;;;;11.65;4.35;;;31.10;47.10;;;;;;5030661;28;20037;-69
2021/06/04 10:41:35;;;;;;;16.00;4.97;;;31.00;48.10;;;;;;5050040;28;20128;-72
2021/06/04 10:44:48;;;;;;;6.93;4.40;;;31.00;47.70;;;;;;5045941;28;20397;-71
2021/06/04 10:48:07;;;;;;;11.55;4.60;;;30.90;47.10;;;;;;5032366;28;20033;-71
2021/06/04 10:51:27;;;;;;;29.95;6.32;;;30.90;47.70;;;;;;5032222;28;20044;-71
2021/06/04 10:55:09;;;;;;;10.40;4.83;;;30.80;47.40;;;;;;5032122;28;20131;-71
2021/06/04 10:58:41;;;;;;;6.68;4.82;;;30.80;47.90;;;;;;5031992;28;20053;-71
2021/06/04 11:01:52;;;;;;;18.35;5.05;;;30.80;48.20;;;;;;5032102;28;20045;-71
2021/06/04 11:05:34;;;;;;;10.18;5.05;;;30.80;47.90;;;;;;5031673;28;20044;-71
2021/06/04 11:08:38;;;;;;;18.17;5.85;;;30.70;48.50;;;;;;5031363;28;20040;-72
2021/06/04 11:12:00;;;;;;;12.95;4.60;;;30.70;48.80;;;;;;5031947;28;20052;-73
2021/06/04 11:15:17;;;;;;;18.42;5.57;;;30.60;49.00;;;;;;5030971;28;20117;-71
2021/06/04 11:18:51;;;;;;;12.93;4.70;;;30.60;49.40;;;;;;5031790;28;20393;-72
2021/06/04 11:22:02;;;;;;;13.70;5.13;;;30.60;49.30;;;;;;5031698;28;20040;-71
2021/06/04 11:25:33;;;;;;;13.70;5.25;;;30.60;49.50;;;;;;5032182;28;20052;-75
2021/06/04 11:28:41;;;;;;;12.95;4.95;;;30.50;49.50;;;;;;5033744;28;20041;-75
2021/06/04 11:32:19;;;;;;;24.25;5.38;;;30.40;49.20;;;;;;5038644;28;20065;-77
2021/06/04 11:35:28;;;;;;;10.05;4.28;;;30.30;49.30;;;;;;5070946;28;20039;-75
2021/06/04 11:38:49;;;;;;;13.32;4.22;;;30.30;50.20;;;;;;5070866;28;20047;-74
2021/06/04 11:41:58;;;;;;;30.60;7.63;;;30.20;48.20;;;;;;5071341;28;20059;-77
2021/06/04 11:45:07;;;;;;;19.38;4.50;;;30.20;48.10;;;;;;5070654;28;20137;-74
2021/06/04 11:48:20;;;;;;;9.77;4.28;;;30.20;48.10;;;;;;5071383;28;20048;-73
2021/06/04 11:51:28;;;;;;;21.67;4.65;;;30.20;48.50;;;;;;5059085;28;20041;-74
2021/06/04 11:54:39;;;;;;;12.13;4.15;;;30.20;47.30;;;;;;5071769;28;20043;-72
2021/06/04 11:57:53;;;;;;;14.90;3.83;;;30.20;46.20;;;;;;5071025;28;20051;-72
2021/06/04 12:01:19;;;;;;;13.00;3.95;;;30.20;46.80;;;;;;5071315;28;20043;-72
2021/06/04 12:04:23;;;;;;;20.95;4.43;;;30.20;46.30;;;;;;5071319;28;20056;-72
2021/06/04 12:07:43;;;;;;;8.23;4.18;;;30.20;46.60;;;;;;5071116;28;20052;-70
2021/06/04 12:10:53;;;;;;;9.70;4.25;;;30.10;47.00;;;;;;5071104;28;20045;-71
2021/06/04 12:14:00;;;;;;;8.10;3.27;;;30.10;47.50;;;;;;5070956;28;20032;-72
2021/06/04 12:17:28;;;;;;;5.45;2.95;;;30.10;46.00;;;;;;5058711;28;20047;-72
2021/06/04 12:20:40;;;;;;;8.00;3.33;;;30.10;46.20;;;;;;5070929;28;20039;-72
2021/06/04 12:23:50;;;;;;;10.52;3.20;;;30.10;46.00;;;;;;5070531;28;20059;-73
2021/06/04 12:27:12;;;;;;;8.40;3.45;;;30.10;45.40;;;;;;5070949;28;20510;-73
2021/06/04 12:30:43;;;;;;;10.30;3.22;;;30.00;45.80;;;;;;5070529;28;20040;-74
2021/06/04 12:33:53;;;;;;;7.75;3.33;;;30.00;46.10;;;;;;5070652;28;20047;-74
2021/06/04 12:37:07;;;;;;;13.70;4.13;;;29.90;46.80;;;;;;5070813;28;20395;-76
2021/06/04 12:40:28;;;;;;;12.05;3.88;;;29.90;47.20;;;;;;5070833;28;20055;-74
2021/06/04 12:43:33;;;;;;;;;;;29.90;47.70;;;;;;5070883;28;20530;-75
2021/06/04 12:46:46;;;;;;;15.80;3.53;;;29.90;47.60;;;;;;5070859;28;19915;-74
2021/06/04 12:50:03;;;;;;;7.60;3.88;;;29.80;47.60;;;;;;5070911;28;20043;-75
2021/06/04 12:53:20;;;;;;;11.32;3.20;;;29.90;47.20;;;;;;5070459;28;20040;-74
2021/06/04 12:56:26;;;;;;;10.68;3.00;;;29.90;47.30;;;;;;5070840;28;20048;-74
2021/06/04 12:59:31;;;;;;;13.10;3.75;;;29.90;46.10;;;;;;5070239;28;20102;-74
2021/06/04 13:02:35;;;;;;;10.10;3.20;;;29.90;47.60;;;;;;5070114;28;20051;-75
2021/06/04 13:05:43;;;;;;;7.40;3.17;;;29.90;47.80;;;;;;5070654;28;20063;-74
2021/06/04 13:08:48;;;;;;;8.15;3.22;;;29.80;47.20;;;;;;5071498;28;20384;-75
2021/06/04 13:11:52;;;;;;;11.48;3.72;;;29.80;47.10;;;;;;5073881;28;20044;-75
2021/06/04 13:15:06;;;;;;;4.72;3.10;;;29.80;47.40;;;;;;5074288;28;20043;-75
2021/06/04 13:18:17;;;;;;;12.93;3.47;;;29.80;48.20;;;;;;5074160;28;20055;-75
2021/06/04 13:21:25;;;;;;;4.25;2.95;;;29.80;47.60;;;;;;5074114;28;20043;-75
2021/06/04 13:24:33;;;;;;;9.65;3.13;;;29.70;47.90;;;;;;5073857;28;20052;-75
2021/06/04 13:27:38;;;;;;;10.05;3.95;;;29.70;48.90;;;;;;5074241;28;20036;-75
2021/06/04 13:30:48;;;;;;;11.18;3.20;;;29.70;49.60;;;;;;5073870;28;20047;-74
2021/06/04 13:33:59;;;;;;;7.78;3.00;;;29.70;47.60;;;;;;5073716;28;20052;-74
2021/06/04 13:37:05;;;;;;;;;;;29.70;48.60;;;;;;5074153;28;20055;-76
2021/06/04 13:40:14;;;;;;;9.30;3.38;;;29.60;50.40;;;;;;5072553;28;19915;-69
2021/06/04 13:43:36;;;;;;;6.68;3.20;;;29.60;50.90;;;;;;5072843;28;20052;-68
2021/06/04 13:46:45;;;;;;;12.27;3.47;;;29.70;50.30;;;;;;5073666;28;20040;-70
2021/06/04 13:49:51;;;;;;;14.40;3.55;;;29.60;50.20;;;;;;5073706;28;20055;-70
2021/06/04 13:53:00;;;;;;;9.10;3.60;;;29.60;50.30;;;;;;5072633;28;20052;-68
2021/06/04 13:56:22;;;;;;;7.43;3.00;;;29.60;51.00;;;;;;5073412;28;20048;-71
2021/06/04 13:59:29;;;;;;;8.65;3.22;;;29.50;51.80;;;;;;5072988;28;20037;-70
2021/06/04 14:02:34;;;;;;;10.52;3.17;;;29.50;52.00;;;;;;5073332;28;20045;-69
2021/06/04 14:05:39;;;;;;;10.32;3.13;;;29.50;51.80;;;;;;5073318;28;20048;-70
2021/06/04 14:09:08;;;;;;;11.60;3.30;;;29.40;51.90;;;;;;5072740;28;20514;-71
2021/06/04 14:12:18;;;;;;;6.65;3.33;;;29.40;51.80;;;;;;5072706;28;20399;-70
2021/06/04 14:15:43;;;;;;;9.35;3.45;;;29.30;52.50;;;;;;5073054;28;20405;-67
2021/06/04 14:18:49;;;;;;;9.00;3.28;;;29.40;52.70;;;;;;5072956;28;20045;-73
2021/06/04 14:21:54;;;;;;;10.45;3.28;;;29.40;53.00;;;;;;5072319;28;20040;-73
2021/06/04 14:24:58;;;;;;;12.55;4.00;;;29.40;53.30;;;;;;5072832;28;20055;-69
2021/06/04 14:28:11;;;;;;;8.02;2.75;;;29.30;52.90;;;;;;5072885;28;20040;-69
2021/06/04 14:31:19;;;;;;;7.32;3.03;;;29.30;53.20;;;;;;5072794;28;20040;-70
2021/06/04 14:34:38;;;;;;;14.07;4.05;;;29.20;53.30;;;;;;5072765;28;20510;-70
2021/06/04 14:37:56;;;;;;;61.78;8.18;;;29.10;52.90;;;;;;5072533;28;20361;-71
2021/06/04 14:41:05;;;;;;;5.30;2.97;;;29.10;52.50;;;;;;5070844;28;20056;-74
2021/06/04 14:44:09;;;;;;;9.05;3.00;;;29.10;51.60;;;;;;5071401;28;20518;-74
2021/06/04 14:47:34;;;;;;;5.57;2.50;;;29.10;50.60;;;;;;5072090;28;20059;-68
2021/06/04 14:50:38;;;;;;;7.18;2.70;;;29.10;50.60;;;;;;5071409;28;20047;-73
2021/06/04 14:53:43;;;;;;;18.50;3.42;;;29.10;50.50;;;;;;5071347;28;20488;-73
2021/06/04 14:56:47;;;;;;;11.95;3.75;;;29.10;51.30;;;;;;5072028;28;20047;-70
2021/06/04 14:59:52;;;;;;;8.82;3.03;;;29.10;51.20;;;;;;5071996;28;20040;-71
2021/06/04 15:02:57;;;;;;;7.57;2.75;;;29.10;51.40;;;;;;5070482;28;20392;-68
2021/06/04 15:06:06;;;;;;;9.65;2.92;;;29.10;51.40;;;;;;5072020;28;20356;-73
2021/06/04 15:09:11;;;;;;;17.63;3.35;;;29.10;51.00;;;;;;5071625;28;20032;-81
2021/06/04 15:12:16;;;;;;;7.40;2.88;;;29.10;50.40;;;;;;5070829;28;20048;-79
2021/06/04 15:15:26;;;;;;;7.55;2.60;;;29.00;50.40;;;;;;5071338;28;20055;-82
2021/06/04 15:18:32;;;;;;;4.63;2.50;;;29.00;50.20;;;;;;5071101;28;20064;-79
2021/06/04 15:21:38;;;;;;;7.70;2.80;;;29.00;49.90;;;;;;5071262;28;20039;-79
2021/06/04 15:24:43;;;;;;;6.82;2.90;;;29.00;49.30;;;;;;5071572;28;20510;-80
2021/06/04 15:27:48;;;;;;;3.08;1.92;;;29.00;49.30;;;;;;5072196;28;20037;-80
2021/06/04 15:30:52;;;;;;;11.30;3.55;;;29.00;48.30;;;;;;5070990;28;20036;-79
2021/06/04 15:33:58;;;;;;;6.40;3.28;;;29.00;47.60;;;;;;5071608;28;20051;-79
2021/06/04 15:37:04;;;;;;;5.97;2.90;;;29.00;47.80;;;;;;5071657;28;20032;-78
2021/06/04 15:40:09;;;;;;;9.35;2.47;;;29.00;47.90;;;;;;5071349;28;20039;-79
2021/06/04 15:43:16;;;;;;;10.27;2.42;;;29.00;48.00;;;;;;5071064;28;20036;-79
2021/06/04 15:46:20;;;;;;;8.20;2.58;;;29.00;48.20;;;;;;5071658;28;20063;-79
2021/06/04 15:49:25;;;;;;;3.55;2.45;;;29.00;47.80;;;;;;5071404;28;20418;-79
2021/06/04 15:52:29;;;;;;;5.78;2.38;;;28.90;47.90;;;;;;5071034;28;20052;-80
2021/06/04 15:55:34;;;;;;;7.10;2.70;;;28.90;48.40;;;;;;5070509;28;20058;-79
2021/06/04 15:58:39;;;;;;;12.02;3.45;;;28.90;48.40;;;;;;5070466;28;20044;-80
2021/06/04 16:01:44;;;;;;;7.90;2.88;;;28.80;48.10;;;;;;5071047;28;20048;-79
2021/06/04 16:04:49;;;;;;;8.45;2.67;;;28.80;48.10;;;;;;5071181;28;20045;-72
2021/06/04 16:07:53;;;;;;;5.97;2.83;;;28.80;48.20;;;;;;5070849;28;20045;-77
2021/06/04 16:10:57;;;;;;;10.15;2.70;;;28.80;48.20;;;;;;5071136;28;20032;-80
2021/06/04 16:14:01;;;;;;;7.05;2.60;;;28.80;48.10;;;;;;5069134;28;20674;-77
2021/06/04 16:17:06;;;;;;;10.05;3.58;;;28.70;48.10;;;;;;5070848;28;20051;-76
2021/06/04 16:20:14;;;;;;;7.38;2.65;;;28.70;48.30;;;;;;5070708;28;20056;-76
2021/06/04 16:23:19;;;;;;;12.90;3.55;;;28.60;48.50;;;;;;5070646;28;20055;-78
2021/06/04 16:26:24;;;;;;;18.23;3.40;;;28.60;48.40;;;;;;5070763;28;20052;-77
2021/06/04 16:29:28;;;;;;;8.23;3.03;;;28.60;48.40;;;;;;5070171;28;20047;-79
2021/06/04 16:32:32;;;;;;;22.98;3.30;;;28.50;48.50;;;;;;5070273;28;20052;-82